PWSweather.com
Personal Weather Stations
Station Observations
SBERGENWX
Wood Ridge, NJ 07075

Wood Ridge, NJ 07075

Lat: 40.851667, Lon: -74.088131

Elevation: 177

Station Type: Davis Vantage Vue

http://201weather.com/

High Low Average
Temperature 37.2°F2.9°C 25.4°F-3.7°C 32.5°F0.3°C
Dew Point 23.9°F-4.5°C 2.1°F-16.6°C 15.8°F-9.0°C
Winds 8.1 mph 13.0 kmh Calm Calm 3.0 mph W4.8 kmh W
Wind Gusts 16.1 mph25.9 kmh -- 6.0 mph9.7 kmh
Humidity 69% 31% 51%
Pressure 30.18 in1022.0 mb 29.78 in1008.5 mb -
Precipitation 0.00 in0.0 mm - -
Hour Temp Dew Point Humidity Winds Wind Gusts Pressure Precip Precip Rate Daily Precip Total
12:00 AM 33.5°F0.8°C 24.8°F-4.0°C 70% 1.2 mph NW1.9 kmh NW 2.3 mph3.7 kmh 29.75 in1007.5 mb - 0.00 in0.0 mm 0.03 in0.8 mm
12:15 AM 33.2°F0.7°C 23.8°F-4.6°C 68% 2.3 mph WNW3.7 kmh WNW 3.5 mph5.6 kmh 29.76 in1007.8 mb - 0.00 in0.0 mm 0.03 in0.8 mm
12:30 AM 33.0°F0.6°C 23.6°F-4.7°C 68% 5.8 mph WNW9.3 kmh WNW 9.2 mph14.8 kmh 29.77 in1008.1 mb - 0.00 in0.0 mm 0.03 in0.8 mm
12:45 AM 33.0°F0.6°C 23.6°F-4.7°C 68% 2.3 mph NW3.7 kmh NW 3.5 mph5.6 kmh 29.78 in1008.5 mb - 0.00 in0.0 mm 0.03 in0.8 mm
01:00 AM 33.1°F0.6°C 23.7°F-4.6°C 68% 1.2 mph WNW1.9 kmh WNW 4.6 mph7.4 kmh 29.78 in1008.5 mb - 0.00 in0.0 mm 0.00 in0.0 mm
01:15 AM 33.0°F0.6°C 23.9°F-4.5°C 69% Calm Calm -- 29.79 in1008.8 mb - 0.00 in0.0 mm 0.00 in0.0 mm
01:30 AM 33.0°F0.6°C 23.9°F-4.5°C 69% 1.2 mph NW1.9 kmh NW 4.6 mph7.4 kmh 29.79 in1008.8 mb - 0.00 in0.0 mm 0.00 in0.0 mm
01:45 AM 32.9°F0.5°C 23.5°F-4.7°C 68% 1.2 mph W1.9 kmh W 5.8 mph9.3 kmh 29.79 in1008.8 mb - 0.00 in0.0 mm 0.00 in0.0 mm
02:00 AM 33.0°F0.6°C 23.6°F-4.7°C 68% 2.3 mph NW3.7 kmh NW 2.3 mph3.7 kmh 29.80 in1009.1 mb - 0.00 in0.0 mm 0.00 in0.0 mm
02:15 AM 32.9°F0.5°C 23.5°F-4.7°C 68% 1.2 mph WNW1.9 kmh WNW 2.3 mph3.7 kmh 29.81 in1009.5 mb - 0.00 in0.0 mm 0.00 in0.0 mm
02:30 AM 32.9°F0.5°C 23.5°F-4.7°C 68% Calm Calm 2.3 mph3.7 kmh 29.81 in1009.5 mb - 0.00 in0.0 mm 0.00 in0.0 mm
02:45 AM 32.9°F0.5°C 23.1°F-4.9°C 67% 3.5 mph WNW5.6 kmh WNW 8.1 mph13.0 kmh 29.81 in1009.5 mb - 0.00 in0.0 mm 0.00 in0.0 mm
03:00 AM 32.6°F0.3°C 22.8°F-5.1°C 67% 1.2 mph NW1.9 kmh NW 2.3 mph3.7 kmh 29.81 in1009.5 mb - 0.00 in0.0 mm 0.00 in0.0 mm
03:15 AM 32.5°F0.3°C 22.8°F-5.1°C 67% Calm Calm 1.2 mph1.9 kmh 29.82 in1009.8 mb - 0.00 in0.0 mm 0.00 in0.0 mm
03:30 AM 32.4°F0.2°C 23.0°F-5.0°C 68% Calm Calm 3.5 mph5.6 kmh 29.82 in1009.8 mb - 0.00 in0.0 mm 0.00 in0.0 mm
03:45 AM 32.3°F0.2°C 22.9°F-5.1°C 68% Calm Calm -- 29.82 in1009.8 mb - 0.00 in0.0 mm 0.00 in0.0 mm
04:00 AM 32.3°F0.2°C 22.9°F-5.1°C 68% Calm Calm 1.2 mph1.9 kmh 29.82 in1009.8 mb - 0.00 in0.0 mm 0.00 in0.0 mm
04:15 AM 32.2°F0.1°C 23.2°F-4.9°C 69% Calm Calm -- 29.82 in1009.8 mb - 0.00 in0.0 mm 0.00 in0.0 mm
04:30 AM 32.0°F0.0°C 23.0°F-5.0°C 69% 2.3 mph W3.7 kmh W 4.6 mph7.4 kmh 29.82 in1009.8 mb - 0.00 in0.0 mm 0.00 in0.0 mm
04:45 AM 32.3°F0.2°C 22.9°F-5.1°C 68% 1.2 mph W1.9 kmh W 2.3 mph3.7 kmh 29.84 in1010.5 mb - 0.00 in0.0 mm 0.00 in0.0 mm
05:00 AM 32.1°F0.1°C 22.4°F-5.3°C 67% 2.3 mph WNW3.7 kmh WNW 4.6 mph7.4 kmh 29.84 in1010.5 mb - 0.00 in0.0 mm 0.00 in0.0 mm
05:15 AM 32.1°F0.1°C 22.0°F-5.6°C 66% 1.2 mph WNW1.9 kmh WNW 4.6 mph7.4 kmh 29.84 in1010.5 mb - 0.00 in0.0 mm 0.00 in0.0 mm
05:30 AM 31.9°F-0.1°C 21.8°F-5.7°C 66% 2.3 mph W3.7 kmh W 4.6 mph7.4 kmh 29.85 in1010.8 mb - 0.00 in0.0 mm 0.00 in0.0 mm
05:45 AM 32.0°F0.0°C 22.3°F-5.4°C 67% Calm Calm -- 29.86 in1011.2 mb - 0.00 in0.0 mm 0.00 in0.0 mm
06:00 AM 32.3°F0.2°C 22.2°F-5.4°C 66% Calm Calm 3.5 mph5.6 kmh 29.86 in1011.2 mb - 0.00 in0.0 mm 0.00 in0.0 mm
06:15 AM 32.3°F0.2°C 22.6°F-5.2°C 67% Calm Calm 2.3 mph3.7 kmh 29.87 in1011.5 mb - 0.00 in0.0 mm 0.00 in0.0 mm
06:30 AM 31.6°F-0.2°C 21.5°F-5.8°C 66% Calm Calm -- 29.87 in1011.5 mb - 0.00 in0.0 mm 0.00 in0.0 mm
06:45 AM 31.6°F-0.2°C 21.5°F-5.8°C 66% Calm Calm -- 29.89 in1012.2 mb - 0.00 in0.0 mm 0.00 in0.0 mm
07:00 AM 31.6°F-0.2°C 21.5°F-5.8°C 66% Calm Calm -- 29.89 in1012.2 mb - 0.00 in0.0 mm 0.00 in0.0 mm
07:15 AM 31.6°F-0.2°C 21.5°F-5.8°C 66% Calm Calm -- 29.90 in1012.5 mb - 0.00 in0.0 mm 0.00 in0.0 mm
07:30 AM 31.6°F-0.2°C 21.5°F-5.8°C 66% Calm Calm -- 29.91 in1012.9 mb - 0.00 in0.0 mm 0.00 in0.0 mm
07:45 AM 31.6°F-0.2°C 21.5°F-5.8°C 66% Calm Calm -- 29.91 in1012.9 mb - 0.00 in0.0 mm 0.00 in0.0 mm
08:00 AM 31.6°F-0.2°C 21.5°F-5.8°C 66% Calm Calm -- 29.91 in1012.9 mb - 0.00 in0.0 mm 0.00 in0.0 mm
08:15 AM 32.3°F0.2°C 22.2°F-5.4°C 66% 1.2 mph SSW1.9 kmh SSW 3.5 mph5.6 kmh 29.91 in1012.9 mb - 0.00 in0.0 mm 0.00 in0.0 mm
08:30 AM 32.3°F0.2°C 22.6°F-5.2°C 67% 1.2 mph SW1.9 kmh SW 2.3 mph3.7 kmh 29.91 in1012.9 mb - 0.00 in0.0 mm 0.00 in0.0 mm
08:45 AM 32.3°F0.2°C 22.6°F-5.2°C 67% 1.2 mph WSW1.9 kmh WSW 3.5 mph5.6 kmh 29.92 in1013.2 mb - 0.00 in0.0 mm 0.00 in0.0 mm
09:00 AM 32.5°F0.3°C 22.8°F-5.1°C 67% 1.2 mph WNW1.9 kmh WNW 2.3 mph3.7 kmh 29.92 in1013.2 mb - 0.00 in0.0 mm 0.00 in0.0 mm
09:15 AM 32.5°F0.3°C 22.8°F-5.1°C 67% 1.2 mph WSW1.9 kmh WSW 4.6 mph7.4 kmh 29.93 in1013.5 mb - 0.00 in0.0 mm 0.00 in0.0 mm
09:30 AM 32.5°F0.3°C 22.8°F-5.1°C 67% 2.3 mph WSW3.7 kmh WSW 3.5 mph5.6 kmh 29.92 in1013.2 mb - 0.00 in0.0 mm 0.00 in0.0 mm
09:45 AM 33.2°F0.7°C 21.5°F-5.8°C 62% 6.9 mph W11.1 kmh W 12.7 mph20.4 kmh 29.92 in1013.2 mb - 0.00 in0.0 mm 0.00 in0.0 mm
10:00 AM 33.6°F0.9°C 20.8°F-6.2°C 59% 4.6 mph W7.4 kmh W 9.2 mph14.8 kmh 29.93 in1013.5 mb - 0.00 in0.0 mm 0.00 in0.0 mm
10:15 AM 33.5°F0.8°C 20.7°F-6.3°C 59% 2.3 mph WNW3.7 kmh WNW 3.5 mph5.6 kmh 29.93 in1013.5 mb - 0.00 in0.0 mm 0.00 in0.0 mm
10:30 AM 33.5°F0.8°C 21.5°F-5.8°C 61% 2.3 mph W3.7 kmh W 5.8 mph9.3 kmh 29.93 in1013.5 mb - 0.00 in0.0 mm 0.00 in0.0 mm
10:45 AM 34.3°F1.3°C 22.2°F-5.4°C 61% 1.2 mph WSW1.9 kmh WSW 2.3 mph3.7 kmh 29.94 in1013.9 mb - 0.00 in0.0 mm 0.00 in0.0 mm
11:00 AM 35.5°F1.9°C 22.2°F-5.4°C 58% 2.3 mph W3.7 kmh W 3.5 mph5.6 kmh 29.94 in1013.9 mb - 0.00 in0.0 mm 0.00 in0.0 mm
11:15 AM 34.9°F1.6°C 19.9°F-6.7°C 54% 4.6 mph WNW7.4 kmh WNW 6.9 mph11.1 kmh 29.94 in1013.9 mb - 0.00 in0.0 mm 0.00 in0.0 mm
11:30 AM 35.2°F1.8°C 20.2°F-6.6°C 54% 4.6 mph WNW7.4 kmh WNW 6.9 mph11.1 kmh 29.94 in1013.9 mb - 0.00 in0.0 mm 0.00 in0.0 mm
11:45 AM 36.0°F2.2°C 20.1°F-6.6°C 52% 2.3 mph WNW3.7 kmh WNW 11.5 mph18.5 kmh 29.95 in1014.2 mb - 0.00 in0.0 mm 0.00 in0.0 mm
12:00 PM 35.3°F1.8°C 18.0°F-7.8°C 49% 6.9 mph WNW11.1 kmh WNW 9.2 mph14.8 kmh 29.95 in1014.2 mb - 0.00 in0.0 mm 0.00 in0.0 mm
12:15 PM 35.5°F1.9°C 19.2°F-7.1°C 51% 3.5 mph WNW5.6 kmh WNW 8.1 mph13.0 kmh 29.94 in1013.9 mb - 0.00 in0.0 mm 0.00 in0.0 mm
12:30 PM 36.1°F2.3°C 18.3°F-7.6°C 48% 4.6 mph WNW7.4 kmh WNW 11.5 mph18.5 kmh 29.95 in1014.2 mb - 0.00 in0.0 mm 0.00 in0.0 mm
12:45 PM 36.6°F2.6°C 18.8°F-7.3°C 48% 3.5 mph WSW5.6 kmh WSW 8.1 mph13.0 kmh 29.94 in1013.9 mb - 0.00 in0.0 mm 0.00 in0.0 mm
01:00 PM 36.6°F2.6°C 17.2°F-8.2°C 45% 4.6 mph W7.4 kmh W 4.6 mph7.4 kmh 29.94 in1013.9 mb - 0.00 in0.0 mm 0.00 in0.0 mm
01:15 PM 36.9°F2.7°C 18.0°F-7.8°C 46% 4.6 mph W7.4 kmh W 9.2 mph14.8 kmh 29.94 in1013.9 mb - 0.00 in0.0 mm 0.00 in0.0 mm
01:30 PM 36.9°F2.7°C 18.6°F-7.4°C 47% 4.6 mph WSW7.4 kmh WSW 11.5 mph18.5 kmh 29.93 in1013.5 mb - 0.00 in0.0 mm 0.00 in0.0 mm
01:45 PM 37.0°F2.8°C 14.3°F-9.8°C 39% 4.6 mph WNW7.4 kmh WNW 11.5 mph18.5 kmh 29.94 in1013.9 mb - 0.00 in0.0 mm 0.00 in0.0 mm
02:00 PM 35.7°F2.1°C 13.1°F-10.5°C 39% 6.9 mph WNW11.1 kmh WNW 8.1 mph13.0 kmh 29.94 in1013.9 mb - 0.00 in0.0 mm 0.00 in0.0 mm
02:15 PM 36.4°F2.4°C 16.0°F-8.9°C 43% 6.9 mph WNW11.1 kmh WNW 16.1 mph25.9 kmh 29.94 in1013.9 mb - 0.00 in0.0 mm 0.00 in0.0 mm
02:30 PM 37.0°F2.8°C 16.0°F-8.9°C 42% 5.8 mph WNW9.3 kmh WNW 10.4 mph16.7 kmh 29.94 in1013.9 mb - 0.00 in0.0 mm 0.00 in0.0 mm
02:45 PM 37.2°F2.9°C 16.2°F-8.8°C 42% 5.8 mph WNW9.3 kmh WNW 11.5 mph18.5 kmh 29.95 in1014.2 mb - 0.00 in0.0 mm 0.00 in0.0 mm
03:00 PM 36.4°F2.4°C 14.9°F-9.5°C 41% 4.6 mph W7.4 kmh W 12.7 mph20.4 kmh 29.96 in1014.6 mb - 0.00 in0.0 mm 0.00 in0.0 mm
03:15 PM 35.8°F2.1°C 13.8°F-10.1°C 40% 5.8 mph W9.3 kmh W 9.2 mph14.8 kmh 29.96 in1014.6 mb - 0.00 in0.0 mm 0.00 in0.0 mm
03:30 PM 35.9°F2.2°C 13.3°F-10.4°C 39% 3.5 mph WNW5.6 kmh WNW 11.5 mph18.5 kmh 29.97 in1014.9 mb - 0.00 in0.0 mm 0.00 in0.0 mm
03:45 PM 35.4°F1.9°C 11.7°F-11.3°C 37% 4.6 mph W7.4 kmh W 11.5 mph18.5 kmh 29.98 in1015.2 mb - 0.00 in0.0 mm 0.00 in0.0 mm
04:00 PM 35.6°F2.0°C 11.2°F-11.6°C 36% 8.1 mph WNW13.0 kmh WNW 13.8 mph22.2 kmh 29.98 in1015.2 mb - 0.00 in0.0 mm 0.00 in0.0 mm
04:15 PM 35.9°F2.2°C 10.9°F-11.7°C 35% 5.8 mph WNW9.3 kmh WNW 13.8 mph22.2 kmh 29.99 in1015.6 mb - 0.00 in0.0 mm 0.00 in0.0 mm
04:30 PM 35.3°F1.8°C 11.0°F-11.7°C 36% 4.6 mph W7.4 kmh W 10.4 mph16.7 kmh 30.00 in1015.9 mb - 0.00 in0.0 mm 0.00 in0.0 mm
04:45 PM 35.0°F1.7°C 10.7°F-11.8°C 36% 6.9 mph WNW11.1 kmh WNW 12.7 mph20.4 kmh 30.01 in1016.3 mb - 0.00 in0.0 mm 0.00 in0.0 mm
05:00 PM 34.7°F1.5°C 11.1°F-11.6°C 37% 5.8 mph WNW9.3 kmh WNW 6.9 mph11.1 kmh 30.01 in1016.3 mb - 0.00 in0.0 mm 0.00 in0.0 mm
05:15 PM 34.3°F1.3°C 11.8°F-11.2°C 39% 4.6 mph W7.4 kmh W 8.1 mph13.0 kmh 30.02 in1016.6 mb - 0.00 in0.0 mm 0.00 in0.0 mm
05:30 PM 33.7°F0.9°C 11.9°F-11.2°C 40% 8.1 mph W13.0 kmh W 11.5 mph18.5 kmh 30.02 in1016.6 mb - 0.00 in0.0 mm 0.00 in0.0 mm
05:45 PM 33.3°F0.7°C 12.6°F-10.8°C 42% 2.3 mph WNW3.7 kmh WNW 3.5 mph5.6 kmh 30.03 in1016.9 mb - 0.00 in0.0 mm 0.00 in0.0 mm
06:00 PM 33.1°F0.6°C 12.5°F-10.8°C 42% 3.5 mph WNW5.6 kmh WNW 11.5 mph18.5 kmh 30.03 in1016.9 mb - 0.00 in0.0 mm 0.00 in0.0 mm
06:15 PM 32.7°F0.4°C 11.6°F-11.3°C 41% 3.5 mph WNW5.6 kmh WNW 6.9 mph11.1 kmh 30.03 in1016.9 mb - 0.00 in0.0 mm 0.00 in0.0 mm
06:30 PM 32.4°F0.2°C 11.8°F-11.2°C 42% 1.2 mph W1.9 kmh W 2.3 mph3.7 kmh 30.04 in1017.3 mb - 0.00 in0.0 mm 0.00 in0.0 mm
06:45 PM 32.1°F0.1°C 11.6°F-11.3°C 42% 2.3 mph W3.7 kmh W 4.6 mph7.4 kmh 30.05 in1017.6 mb - 0.00 in0.0 mm 0.00 in0.0 mm
07:00 PM 32.3°F0.2°C 9.5°F-12.5°C 38% 3.5 mph W5.6 kmh W 4.6 mph7.4 kmh 30.06 in1017.9 mb - 0.00 in0.0 mm 0.00 in0.0 mm
07:15 PM 32.1°F0.1°C 9.9°F-12.3°C 39% 2.3 mph W3.7 kmh W 3.5 mph5.6 kmh 30.07 in1018.3 mb - 0.00 in0.0 mm 0.00 in0.0 mm
07:30 PM 31.6°F-0.2°C 11.1°F-11.6°C 42% 1.2 mph WSW1.9 kmh WSW 3.5 mph5.6 kmh 30.09 in1019.0 mb - 0.00 in0.0 mm 0.00 in0.0 mm
07:45 PM 31.2°F-0.4°C 11.3°F-11.5°C 43% 1.2 mph SW1.9 kmh SW 3.5 mph5.6 kmh 30.10 in1019.3 mb - 0.00 in0.0 mm 0.00 in0.0 mm
08:00 PM 30.9°F-0.6°C 10.5°F-11.9°C 42% Calm Calm 1.2 mph1.9 kmh 30.10 in1019.3 mb - 0.00 in0.0 mm 0.00 in0.0 mm
08:15 PM 30.7°F-0.7°C 9.2°F-12.7°C 40% 2.3 mph W3.7 kmh W 3.5 mph5.6 kmh 30.10 in1019.3 mb - 0.00 in0.0 mm 0.00 in0.0 mm
08:30 PM 30.7°F-0.7°C 9.2°F-12.7°C 40% 1.2 mph WNW1.9 kmh WNW 3.5 mph5.6 kmh 30.10 in1019.3 mb - 0.00 in0.0 mm 0.00 in0.0 mm
08:45 PM 30.4°F-0.9°C 9.5°F-12.5°C 41% 3.5 mph WNW5.6 kmh WNW 6.9 mph11.1 kmh 30.11 in1019.6 mb - 0.00 in0.0 mm 0.00 in0.0 mm
09:00 PM 30.3°F-0.9°C 6.5°F-14.2°C 36% 5.8 mph WNW9.3 kmh WNW 10.4 mph16.7 kmh 30.11 in1019.6 mb - 0.00 in0.0 mm 0.00 in0.0 mm
09:15 PM 30.0°F-1.1°C 5.6°F-14.7°C 35% 2.3 mph W3.7 kmh W 4.6 mph7.4 kmh 30.11 in1019.6 mb - 0.00 in0.0 mm 0.00 in0.0 mm
09:30 PM 29.8°F-1.2°C 3.4°F-15.9°C 32% 4.6 mph NW7.4 kmh NW 8.1 mph13.0 kmh 30.11 in1019.6 mb - 0.00 in0.0 mm 0.00 in0.0 mm
09:45 PM 29.3°F-1.5°C 3.0°F-16.1°C 32% 2.3 mph WNW3.7 kmh WNW 10.4 mph16.7 kmh 30.11 in1019.6 mb - 0.00 in0.0 mm 0.00 in0.0 mm
10:00 PM 29.0°F-1.7°C 2.1°F-16.6°C 31% 3.5 mph WNW5.6 kmh WNW 8.1 mph13.0 kmh 30.11 in1019.6 mb - 0.00 in0.0 mm 0.00 in0.0 mm
10:15 PM 28.5°F-1.9°C 2.3°F-16.5°C 32% 2.3 mph NW3.7 kmh NW 3.5 mph5.6 kmh 30.12 in1020.0 mb - 0.00 in0.0 mm 0.00 in0.0 mm
10:30 PM 28.2°F-2.1°C 4.0°F-15.6°C 35% 3.5 mph WNW5.6 kmh WNW 3.5 mph5.6 kmh 30.12 in1020.0 mb - 0.00 in0.0 mm 0.00 in0.0 mm
10:45 PM 27.8°F-2.3°C 4.9°F-15.1°C 37% 3.5 mph WNW5.6 kmh WNW 10.4 mph16.7 kmh 30.13 in1020.3 mb - 0.00 in0.0 mm 0.00 in0.0 mm
11:00 PM 27.5°F-2.5°C 4.6°F-15.2°C 37% 4.6 mph WNW7.4 kmh WNW 11.5 mph18.5 kmh 30.14 in1020.7 mb - 0.00 in0.0 mm 0.00 in0.0 mm
11:15 PM 27.1°F-2.7°C 3.6°F-15.8°C 36% 5.8 mph W9.3 kmh W 11.5 mph18.5 kmh 30.14 in1020.7 mb - 0.00 in0.0 mm 0.00 in0.0 mm
11:30 PM 27.0°F-2.8°C 3.5°F-15.8°C 36% 2.3 mph WNW3.7 kmh WNW 3.5 mph5.6 kmh 30.15 in1021.0 mb - 0.00 in0.0 mm 0.00 in0.0 mm
11:45 PM 26.7°F-2.9°C 2.7°F-16.3°C 35% 3.5 mph W5.6 kmh W 6.9 mph11.1 kmh 30.16 in1021.3 mb - 0.00 in0.0 mm 0.00 in0.0 mm